Time;durP1;ratioP1;P1;durP2;ratioP2;P2;SDS_P1;SDS_P2;PMS_P1;PMS_P2;Temp;Humidity;BMP_temperature;BMP_pressure;BME280_temperature;BME280_humidity;BME280_pressure;Samples;Min_cycle;Max_cycle;Signal;HPM_P1;HPM_P2
2022/03/23 00:00:31;;;;;;;10.67;4.93;;;;;;;6.46;60.69;100695.69;5154620;27;20254;-80
2022/03/23 00:02:59;;;;;;;10.37;6.50;;;;;;;6.40;60.35;100690.50;5154392;27;20185;-81
2022/03/23 00:05:28;;;;;;;11.47;5.93;;;;;;;6.46;60.88;100692.25;5154529;27;20265;-80
2022/03/23 00:07:56;;;;;;;10.73;5.30;;;;;;;6.40;60.72;100687.06;5154321;27;20198;-75
2022/03/23 00:10:23;;;;;;;8.67;5.63;;;;;;;6.24;61.06;100682.63;5153987;27;20201;-74
2022/03/23 00:12:51;;;;;;;10.87;5.20;;;;;;;6.27;60.75;100692.97;5154267;27;20200;-74
2022/03/23 00:15:18;;;;;;;13.20;5.43;;;;;;;6.14;61.39;100690.31;5154129;27;20688;-75
2022/03/23 00:17:46;;;;;;;6.23;4.87;;;;;;;5.90;62.18;100684.06;5153818;27;20617;-74
2022/03/23 00:20:14;;;;;;;7.50;4.93;;;;;;;5.94;62.35;100683.25;5154122;27;20724;-74
2022/03/23 00:22:43;;;;;;;6.53;4.90;;;;;;;5.98;62.27;100687.59;5153905;27;20276;-74
2022/03/23 00:25:10;;;;;;;10.20;5.30;;;;;;;5.95;62.51;100688.44;5153809;27;20211;-74
2022/03/23 00:27:37;;;;;;;9.87;5.20;;;;;;;5.93;62.54;100694.41;5153677;27;20177;-74
2022/03/23 00:30:06;;;;;;;11.97;5.57;;;;;;;5.92;62.62;100711.59;5154518;27;20219;-79
2022/03/23 00:32:33;;;;;;;11.50;5.93;;;;;;;5.88;62.72;100709.81;5153838;27;20193;-80
2022/03/23 00:35:00;;;;;;;11.93;5.20;;;;;;;5.68;63.23;100689.00;5154318;27;20194;-82
2022/03/23 00:37:27;;;;;;;8.03;5.70;;;;;;;5.66;63.53;100695.84;5154575;27;20303;-83
2022/03/23 00:39:56;;;;;;;13.20;5.73;;;;;;;5.45;64.09;100668.16;5153905;27;20193;-81
2022/03/23 00:42:23;;;;;;;13.30;6.63;;;;;;;5.55;64.55;100697.44;5154241;27;20341;-82
2022/03/23 00:44:51;;;;;;;9.20;5.73;;;;;;;5.31;64.21;100661.13;5153703;27;20193;-82
2022/03/23 00:47:18;;;;;;;12.60;6.37;;;;;;;5.34;65.01;100682.63;5153111;27;20711;-75
2022/03/23 00:49:46;;;;;;;14.20;6.07;;;;;;;5.20;64.29;100673.03;5153401;27;20211;-75
2022/03/23 00:52:12;;;;;;;11.87;5.73;;;;;;;5.29;64.37;100683.44;5153435;27;20196;-75
2022/03/23 00:54:39;;;;;;;13.07;5.47;;;;;;;5.43;63.44;100681.88;5153105;27;20198;-74
2022/03/23 00:57:08;;;;;;;10.80;5.80;;;;;;;5.31;64.02;100674.00;5152921;27;20193;-75
2022/03/23 00:59:35;;;;;;;9.83;5.93;;;;;;;5.35;63.23;100668.06;5152939;27;20357;-74
2022/03/23 01:02:03;;;;;;;11.83;6.63;;;;;;;5.36;63.28;100669.78;5152899;27;20204;-74
2022/03/23 01:04:30;;;;;;;8.37;5.80;;;;;;;5.34;63.42;100679.19;5153239;27;20200;-75
2022/03/23 01:06:57;;;;;;;11.57;6.43;;;;;;;5.27;63.93;100669.69;5152973;27;20194;-75
2022/03/23 01:09:25;;;;;;;11.23;5.97;;;;;;;5.14;63.55;100673.84;5153000;27;20193;-75
2022/03/23 01:11:52;;;;;;;12.70;6.17;;;;;;;5.03;64.29;100676.28;5152941;27;20614;-75
2022/03/23 01:14:23;;;;;;;13.93;6.20;;;;;;;4.91;64.46;100670.13;5152499;27;20189;-74
2022/03/23 01:16:50;;;;;;;9.97;5.80;;;;;;;4.80;64.67;100657.13;5153020;27;20203;-75
2022/03/23 01:19:17;;;;;;;10.07;5.80;;;;;;;4.86;64.68;100672.63;5152941;27;20216;-74
2022/03/23 01:21:44;;;;;;;10.13;6.70;;;;;;;4.82;64.60;100664.88;5152956;27;20195;-75
2022/03/23 01:24:11;;;;;;;15.90;7.27;;;;;;;4.83;64.60;100658.88;5152530;27;20192;-75
2022/03/23 01:26:38;;;;;;;15.47;7.30;;;;;;;4.91;64.90;100671.00;5152681;27;20252;-76
2022/03/23 01:29:06;;;;;;;16.60;8.00;;;;;;;4.91;65.58;100671.00;5152667;27;20200;-74
2022/03/23 01:31:34;;;;;;;17.73;7.73;;;;;;;4.87;65.78;100663.19;5152394;27;20197;-76
2022/03/23 01:34:02;;;;;;;17.03;8.53;;;;;;;4.86;65.70;100662.34;5152286;27;20193;-75
2022/03/23 01:36:29;;;;;;;17.70;8.10;;;;;;;4.84;65.77;100664.03;5153143;27;20204;-81
2022/03/23 01:38:56;;;;;;;19.40;9.20;;;;;;;4.88;66.09;100665.78;5153225;27;20243;-80
2022/03/23 01:41:24;;;;;;;18.13;9.33;;;;;;;4.86;66.36;100671.75;5152958;27;20198;-80
2022/03/23 01:43:51;;;;;;;15.90;8.80;;;;;;;4.77;66.88;100658.78;5153163;27;20199;-80
2022/03/23 01:46:19;;;;;;;15.33;9.97;;;;;;;4.71;67.50;100650.16;5153258;27;20195;-80
2022/03/23 01:48:48;;;;;;;16.80;10.20;;;;;;;4.71;68.10;100680.16;5152659;27;20229;-79
2022/03/23 01:51:16;;;;;;;14.97;8.97;;;;;;;4.65;68.14;100677.47;5152907;27;20196;-79
2022/03/23 01:53:42;;;;;;;17.20;9.27;;;;;;;4.67;68.43;100686.09;5152606;27;20203;-74
2022/03/23 01:56:12;;;;;;;18.70;9.63;;;;;;;4.71;67.87;100683.59;5152106;27;20226;-74
2022/03/23 01:58:40;;;;;;;18.03;9.90;;;;;;;4.72;68.75;100687.03;5152122;27;20219;-75
2022/03/23 02:01:07;;;;;;;16.70;9.03;;;;;;;4.68;68.40;100667.25;5152358;27;20222;-74
2022/03/23 02:03:34;;;;;;;19.53;10.47;;;;;;;4.83;68.80;100682.03;5152454;27;20196;-75
2022/03/23 02:06:02;;;;;;;19.93;10.13;;;;;;;4.86;67.52;100688.06;5152096;27;20191;-74
2022/03/23 02:08:29;;;;;;;16.53;8.73;;;;;;;4.96;67.07;100679.63;5152399;27;20196;-73
2022/03/23 02:10:57;;;;;;;18.03;9.23;;;;;;;4.92;66.89;100671.84;5152290;27;20205;-73
2022/03/23 02:13:23;;;;;;;22.23;10.13;;;;;;;4.96;67.22;100684.78;5152186;27;20196;-79
2022/03/23 02:15:51;;;;;;;17.50;9.63;;;;;;;4.99;66.53;100669.38;5153023;27;20200;-80
2022/03/23 02:18:18;;;;;;;16.80;9.90;;;;;;;4.99;66.28;100669.38;5152637;27;20213;-80
2022/03/23 02:20:45;;;;;;;14.97;9.80;;;;;;;4.98;66.58;100680.50;5152455;27;20197;-80
2022/03/23 02:23:14;;;;;;;11.80;8.77;;;;;;;4.96;66.75;100671.91;5152074;27;20682;-75
2022/03/23 02:25:42;;;;;;;16.67;9.23;;;;;;;5.00;66.90;100670.22;5151815;27;20196;-75
2022/03/23 02:28:10;;;;;;;12.97;7.87;;;;;;;4.84;67.19;100642.59;5151604;27;20198;-74
2022/03/23 02:30:36;;;;;;;20.57;8.60;;;;;;;4.95;66.51;100666.75;5151661;27;20197;-74
2022/03/23 02:33:04;;;;;;;17.43;8.10;;;;;;;4.84;67.44;100669.19;5151693;27;20208;-75
2022/03/23 02:35:31;;;;;;;12.53;8.00;;;;;;;4.74;67.84;100657.03;5151562;27;20582;-75
2022/03/23 02:37:58;;;;;;;17.93;8.27;;;;;;;4.90;67.34;100671.81;5151596;27;20227;-75
2022/03/23 02:40:26;;;;;;;12.57;7.70;;;;;;;4.93;67.11;100668.44;5152085;27;20199;-75
2022/03/23 02:42:54;;;;;;;14.93;8.17;;;;;;;4.96;67.48;100689.94;5151888;27;20194;-75
2022/03/23 02:45:21;;;;;;;13.97;7.57;;;;;;;4.95;67.53;100669.31;5151704;27;20231;-75
2022/03/23 02:47:47;;;;;;;13.37;7.63;;;;;;;4.98;67.80;100680.50;5154126;27;20238;-74
2022/03/23 02:50:14;;;;;;;14.27;7.73;;;;;;;4.94;68.06;100681.31;5155439;27;20193;-74
2022/03/23 03:01:52;;;;;;;13.63;7.73;;;;;;;4.69;69.36;100663.84;5155714;27;20196;-81
2022/03/23 03:04:05;;;;;;;10.97;6.77;;;;;;;4.92;67.85;100677.00;5156041;27;20248;-75
2022/03/23 03:06:32;;;;;;;8.30;4.63;;;;;;;5.13;62.74;100682.41;5155662;27;20736;-75
2022/03/23 03:08:59;;;;;;;10.00;5.80;;;;;;;5.16;64.92;100681.56;5155975;27;20664;-75
2022/03/23 03:11:27;;;;;;;8.37;6.03;;;;;;;5.07;64.90;100657.47;5156014;27;20253;-75
2022/03/23 03:13:54;;;;;;;12.27;5.90;;;;;;;5.10;65.41;100680.66;5155716;27;20188;-75
2022/03/23 03:16:21;;;;;;;9.17;6.40;;;;;;;5.17;64.73;100676.44;5155324;27;20207;-75
2022/03/23 03:18:48;;;;;;;6.53;5.03;;;;;;;5.13;62.85;100681.53;5155281;27;20232;-75
2022/03/23 03:21:15;;;;;;;10.93;5.30;;;;;;;5.05;62.86;100659.16;5155369;27;20693;-80
2022/03/23 03:23:43;;;;;;;9.80;5.50;;;;;;;5.17;63.13;100670.44;5156149;27;20579;-80
2022/03/23 03:26:11;;;;;;;11.07;6.63;;;;;;;5.17;63.01;100658.44;5161776;27;20192;-80
2022/03/23 03:28:40;;;;;;;7.03;5.97;;;;;;;5.27;62.86;100667.13;5176097;27;20192;-80
2022/03/23 03:31:08;;;;;;;7.77;5.83;;;;;;;5.28;61.69;100667.13;5176285;27;20292;-80
2022/03/23 03:33:36;;;;;;;8.23;4.93;;;;;;;5.41;58.07;100658.72;5175922;27;20599;-80
2022/03/23 03:36:04;;;;;;;6.27;4.70;;;;;;;5.53;57.92;100662.25;5175593;27;20207;-80
2022/03/23 03:38:31;;;;;;;10.57;4.90;;;;;;;5.70;57.34;100660.69;5175704;27;20216;-74
2022/03/23 03:40:59;;;;;;;9.77;5.20;;;;;;;5.86;55.78;100662.56;5175695;27;20196;-76
2022/03/23 03:43:26;;;;;;;7.20;5.07;;;;;;;5.88;55.82;100662.53;5151954;27;20293;-73
2022/03/23 03:45:54;;;;;;;7.00;5.00;;;;;;;5.84;56.67;100669.41;5155579;27;20288;-76
2022/03/23 03:48:22;;;;;;;7.37;4.67;;;;;;;5.94;55.73;100660.06;5152326;27;20613;-75
2022/03/23 03:50:49;;;;;;;7.50;4.93;;;;;;;5.87;55.45;100635.09;5155308;27;20287;-75
2022/03/23 03:53:16;;;;;;;7.63;5.57;;;;;;;5.73;56.30;100647.84;5154954;27;20223;-75
2022/03/23 03:55:43;;;;;;;5.87;5.10;;;;;;;5.75;57.29;100654.75;5152037;27;20278;-75
2022/03/23 03:58:12;;;;;;;8.70;5.40;;;;;;;5.61;58.06;100651.16;5151793;27;20235;-74
2022/03/23 04:00:40;;;;;;;12.20;5.83;;;;;;;5.51;61.04;100657.09;5144271;27;20213;-75
2022/03/23 04:03:08;;;;;;;15.23;6.27;;;;;;;5.23;62.57;100627.59;5160085;27;20235;-75
2022/03/23 04:05:36;;;;;;;12.53;6.17;;;;;;;5.21;64.09;100661.88;5158721;27;20228;-76
2022/03/23 04:08:03;;;;;;;11.73;6.10;;;;;;;4.87;65.78;100648.63;5153591;27;20217;-79
2022/03/23 04:10:30;;;;;;;9.40;6.43;;;;;;;4.91;65.76;100659.81;5153023;27;20221;-76
2022/03/23 04:12:58;;;;;;;15.00;6.13;;;;;;;4.80;66.49;100659.69;5152903;27;20217;-76
2022/03/23 04:15:26;;;;;;;13.80;6.33;;;;;;;4.80;66.06;100654.56;5153324;27;20217;-78
2022/03/23 04:17:54;;;;;;;11.03;6.40;;;;;;;4.86;65.96;100664.91;5169052;27;20220;-77
2022/03/23 04:20:23;;;;;;;10.73;6.60;;;;;;;4.66;66.33;100635.50;5154625;27;20715;-76
2022/03/23 04:22:50;;;;;;;14.37;6.13;;;;;;;4.67;67.22;100665.53;5153726;27;20360;-76
2022/03/23 04:25:19;;;;;;;11.77;5.90;;;;;;;4.49;67.88;100661.00;5152964;27;20304;-76
2022/03/23 04:27:47;;;;;;;10.07;6.17;;;;;;;4.51;67.57;100672.19;5161631;27;20243;-76
2022/03/23 04:30:15;;;;;;;12.30;6.20;;;;;;;4.46;68.37;100673.81;5173895;27;20212;-77
2022/03/23 04:32:42;;;;;;;9.90;6.77;;;;;;;4.45;67.95;100679.78;5175264;27;20239;-77
2022/03/23 04:35:09;;;;;;;13.27;6.47;;;;;;;4.17;68.14;100641.69;5174073;27;20215;-77
2022/03/23 04:37:38;;;;;;;13.87;6.90;;;;;;;4.14;68.35;100636.50;5174214;27;20229;-75
2022/03/23 04:40:07;;;;;;;10.97;5.97;;;;;;;4.08;69.10;100657.81;5172842;27;20254;-77
2022/03/23 04:42:35;;;;;;;14.00;6.80;;;;;;;4.03;70.44;100679.13;5166179;27;20223;-75
2022/03/23 04:45:02;;;;;;;15.57;7.57;;;;;;;3.95;70.58;100686.72;5153560;27;20214;-74
2022/03/23 04:47:29;;;;;;;12.93;7.33;;;;;;;3.90;70.28;100681.50;5152865;27;20607;-75
2022/03/23 04:49:56;;;;;;;16.77;7.47;;;;;;;3.83;70.51;100671.13;5152472;27;20226;-75
2022/03/23 04:52:23;;;;;;;18.13;8.27;;;;;;;3.91;70.34;100680.66;5152938;27;20899;-76
2022/03/23 04:54:56;;;;;;;20.87;8.13;;;;;;;3.95;70.49;100672.16;5151703;27;20568;-74
2022/03/23 04:57:23;;;;;;;16.57;7.83;;;;;;;4.04;70.10;100686.00;5152356;27;20226;-74
2022/03/23 04:59:51;;;;;;;14.00;7.40;;;;;;;4.16;69.00;100687.06;5155804;27;20227;-75
2022/03/23 05:02:18;;;;;;;17.20;7.50;;;;;;;4.20;68.95;100675.97;5161082;27;20675;-74
2022/03/23 05:04:45;;;;;;;14.60;8.50;;;;;;;4.22;67.69;100682.00;5173256;27;20741;-76
2022/03/23 05:07:12;;;;;;;17.57;7.30;;;;;;;4.41;67.16;100682.28;5173613;27;20218;-76
2022/03/23 05:09:39;;;;;;;14.27;8.10;;;;;;;4.40;66.68;100676.31;5172271;27;20710;-75
2022/03/23 05:12:09;;;;;;;11.07;7.60;;;;;;;4.62;64.98;100687.75;5171050;27;20229;-75
2022/03/23 05:14:36;;;;;;;13.57;8.37;;;;;;;4.61;64.83;100689.47;5173831;27;20296;-76
2022/03/23 05:17:03;;;;;;;17.50;8.90;;;;;;;4.50;65.37;100682.44;5172717;27;20216;-75
2022/03/23 05:19:30;;;;;;;14.13;8.90;;;;;;;4.66;65.16;100689.50;5173544;27;20225;-76
2022/03/23 05:21:57;;;;;;;17.17;8.23;;;;;;;4.80;63.81;100688.00;5172822;27;20667;-75
2022/03/23 05:24:24;;;;;;;15.00;8.73;;;;;;;4.84;63.09;100691.47;5172405;27;20320;-76
2022/03/23 05:26:51;;;;;;;14.73;8.57;;;;;;;5.19;62.17;100677.34;5172913;27;20216;-75
2022/03/23 05:29:20;;;;;;;13.53;8.63;;;;;;;6.74;57.97;100685.56;5172917;27;20212;-76
2022/03/23 05:31:47;;;;;;;17.30;7.43;;;;;;;8.69;52.59;100689.34;5172767;27;20277;-76
2022/03/23 05:34:14;;;;;;;11.97;7.90;;;;;;;10.61;47.60;100686.38;5159880;27;20688;-76
2022/03/23 05:36:41;;;;;;;12.57;8.50;;;;;;;11.76;43.35;100691.03;5152113;27;20737;-77
2022/03/23 05:39:08;;;;;;;13.90;8.13;;;;;;;12.87;40.93;100686.50;5151219;27;20293;-76
2022/03/23 05:41:35;;;;;;;17.33;8.57;;;;;;;13.96;38.40;100698.97;5152343;27;20240;-76
2022/03/23 05:44:02;;;;;;;10.27;7.63;;;;;;;14.75;36.69;100691.75;5152140;27;20299;-78
2022/03/23 05:46:30;;;;;;;11.23;7.97;;;;;;;15.67;34.92;100680.38;5152875;27;20225;-84
2022/03/23 05:48:58;;;;;;;16.60;8.23;;;;;;;16.38;33.44;100679.75;5111415;28;20606;-80
2022/03/23 05:51:25;;;;;;;12.70;7.63;;;;;;;16.98;32.42;100702.16;5111168;28;20218;-81
2022/03/23 05:53:51;;;;;;;17.20;7.77;;;;;;;17.62;31.96;100700.59;5110418;28;20702;-79
2022/03/23 05:56:19;;;;;;;14.47;7.57;;;;;;;18.61;30.19;100715.00;5110556;27;20253;-81
2022/03/23 05:58:46;;;;;;;11.57;8.40;;;;;;;19.48;28.90;100714.63;5110779;28;20309;-83
2022/03/23 06:01:13;;;;;;;11.43;7.70;;;;;;;19.43;28.50;100694.66;5110253;28;20701;-84
2022/03/23 06:03:41;;;;;;;12.52;6.85;;;;;;;20.00;28.02;100704.22;5110977;28;20210;-82
2022/03/23 06:06:09;;;;;;;15.52;8.05;;;;;;;20.23;27.35;100711.84;5110323;28;20246;-81
2022/03/23 06:08:36;;;;;;;12.55;8.25;;;;;;;20.42;27.28;100692.53;5111625;28;20221;-80
2022/03/23 06:11:03;;;;;;;10.05;7.18;;;;;;;20.74;26.55;100710.19;5109747;28;20588;-83
2022/03/23 06:13:31;;;;;;;17.38;8.35;;;;;;;20.79;26.79;100718.72;5110416;28;20219;-75
2022/03/23 06:16:00;;;;;;;14.32;7.82;;;;;;;20.84;26.38;100714.06;5109540;28;20852;-76
2022/03/23 06:18:27;;;;;;;8.35;7.55;;;;;;;20.53;26.88;100711.31;5108893;28;20222;-76
2022/03/23 06:20:56;;;;;;;9.45;7.70;;;;;;;20.68;26.76;100710.50;5108027;28;20226;-80
2022/03/23 06:23:22;;;;;;;12.48;7.90;;;;;;;;;;5113493;28;20210;-75
2022/03/23 06:25:49;;;;;;;10.10;7.80;;;;;;;22.67;24.47;100703.84;5113381;27;20226;-76
2022/03/23 06:28:16;;;;;;;7.90;7.10;;;;;;;23.29;23.77;100693.84;5113815;28;20218;-77
2022/03/23 06:30:43;;;;;;;12.93;7.82;;;;;;;23.51;23.34;100720.72;5113167;27;20210;-76
2022/03/23 06:33:11;;;;;;;12.68;8.20;;;;;;;23.60;23.16;100711.31;5113120;28;20232;-77
2022/03/23 06:35:38;;;;;;;9.90;7.70;;;;;;;23.76;23.05;100714.72;5113749;28;20218;-77
2022/03/23 06:38:06;;;;;;;12.73;8.63;;;;;;;24.04;23.03;100708.47;5113466;28;20703;-76
2022/03/23 06:40:34;;;;;;;9.85;8.05;;;;;;;24.80;22.12;100711.31;5113910;28;20233;-77
2022/03/23 06:43:01;;;;;;;11.82;9.93;;;;;;;24.80;21.76;100688.25;5113177;27;20222;-76
2022/03/23 06:45:29;;;;;;;13.57;9.43;;;;;;;24.98;21.78;100712.72;5113851;28;20207;-77
2022/03/23 06:47:57;;;;;;;15.82;10.00;;;;;;;25.25;21.87;100702.81;5135748;27;20261;-77
2022/03/23 06:50:24;;;;;;;30.10;10.52;;;;;;;25.11;21.92;100700.28;5153530;27;20209;-76
2022/03/23 06:52:51;;;;;;;27.08;8.63;;;;;;;24.92;21.71;100699.84;5153542;27;20213;-76
2022/03/23 06:55:19;;;;;;;29.98;9.57;;;;;;;25.00;21.66;100699.31;5153431;27;20610;-76
2022/03/23 06:57:46;;;;;;;16.67;8.85;;;;;;;24.44;22.02;100677.50;5153694;27;20224;-77
2022/03/23 07:00:14;;;;;;;16.83;7.45;;;;;;;24.74;21.67;100717.03;5153610;27;20227;-76
2022/03/23 07:02:42;;;;;;;10.70;7.47;;;;;;;24.22;21.94;100686.06;5151329;27;20584;-79
2022/03/23 07:05:09;;;;;;;9.48;8.13;;;;;;;24.64;21.98;100702.69;5154073;27;20205;-80
2022/03/23 07:07:36;;;;;;;9.13;7.75;;;;;;;25.01;21.48;100699.22;5154604;27;20249;-83
2022/03/23 07:10:03;;;;;;;10.90;7.60;;;;;;;25.36;21.06;100695.88;5153794;27;20238;-81
2022/03/23 07:12:31;;;;;;;10.18;7.95;;;;;;;26.70;20.32;100698.25;5153932;27;20270;-78
2022/03/23 07:14:59;;;;;;;13.27;7.60;;;;;;;26.47;20.54;100701.84;5154879;27;20312;-82
2022/03/23 07:17:26;;;;;;;16.60;8.07;;;;;;;27.40;19.56;100687.41;5155306;27;20270;-80
2022/03/23 07:19:53;;;;;;;13.57;8.50;;;;;;;27.87;19.16;100696.06;5157130;27;20639;-75
2022/03/23 07:22:20;;;;;;;12.75;8.40;;;;;;;27.47;19.50;100683.25;5175376;27;20212;-78
2022/03/23 07:24:47;;;;;;;10.68;8.20;;;;;;;27.68;19.54;100706.53;5174918;27;20212;-77
2022/03/23 07:27:14;;;;;;;11.82;7.45;;;;;;;27.97;18.92;100686.34;5174120;27;20217;-79
2022/03/23 07:29:42;;;;;;;15.95;7.32;;;;;;;27.38;19.24;100702.69;5175438;27;20224;-76
2022/03/23 07:32:10;;;;;;;11.80;6.03;;;;;;;27.47;19.26;100696.59;5174733;27;20608;-77
2022/03/23 07:34:38;;;;;;;8.63;7.35;;;;;;;27.08;19.18;100687.31;5175483;27;20292;-77
2022/03/23 07:37:05;;;;;;;9.20;6.00;;;;;;;27.44;19.17;100683.50;5174969;27;20204;-78
2022/03/23 07:39:32;;;;;;;8.43;5.75;;;;;;;29.24;18.17;100692.38;5175199;27;20232;-77
2022/03/23 07:42:00;;;;;;;6.18;5.57;;;;;;;30.05;17.29;100699.38;5172033;27;20294;-77
2022/03/23 07:44:27;;;;;;;7.43;5.80;;;;;;;30.50;16.91;100672.81;5154789;27;20311;-80
2022/03/23 07:46:55;;;;;;;9.50;5.28;;;;;;;29.03;17.30;100683.56;5154124;27;20623;-79
2022/03/23 07:49:23;;;;;;;6.00;5.40;;;;;;;28.65;17.47;100674.34;5154335;27;20221;-77
2022/03/23 07:51:50;;;;;;;9.55;4.63;;;;;;;28.90;17.14;100676.59;5154481;27;20353;-77
2022/03/23 07:54:17;;;;;;;9.57;4.53;;;;;;;29.54;16.78;100667.44;5153430;27;20217;-77
2022/03/23 07:56:44;;;;;;;7.47;5.50;;;;;;;29.32;16.84;100678.34;5155038;27;20293;-77
2022/03/23 07:59:11;;;;;;;9.75;4.60;;;;;;;29.66;16.50;100673.53;5154454;27;20215;-77
2022/03/23 08:01:38;;;;;;;5.10;4.10;;;;;;;28.62;17.31;100668.41;5157005;27;20220;-75
2022/03/23 08:04:06;;;;;;;4.53;4.05;;;;;;;28.23;17.78;100672.63;5159231;27;20236;-77
2022/03/23 08:06:35;;;;;;;4.72;4.30;;;;;;;28.03;17.31;100669.78;5155918;27;20607;-76
2022/03/23 08:09:02;;;;;;;4.40;3.88;;;;;;;25.08;19.41;100670.41;5167958;27;20243;-77
2022/03/23 08:11:29;;;;;;;9.25;3.92;;;;;;;23.19;20.70;100648.53;5162229;27;20225;-75
2022/03/23 08:13:56;;;;;;;16.50;5.22;;;;;;;21.91;21.96;100663.31;5166242;27;20571;-76
2022/03/23 08:16:23;;;;;;;4.10;3.80;;;;;;;18.98;24.80;100666.03;5170793;27;20188;-77
2022/03/23 08:18:52;;;;;;;6.60;4.05;;;;;;;17.43;26.71;100655.84;5174830;27;20292;-75
2022/03/23 08:21:21;;;;;;;4.20;3.42;;;;;;;15.87;28.36;100633.47;5171383;27;20216;-76
2022/03/23 08:23:48;;;;;;;7.43;3.80;;;;;;;15.41;29.22;100659.34;5173698;27;20279;-76
2022/03/23 08:26:15;;;;;;;7.20;5.13;;;;;;;15.32;30.22;100657.00;5175071;27;20201;-79
2022/03/23 08:28:42;;;;;;;17.37;14.17;;;;;;;15.40;30.07;100653.25;5175109;27;20193;-75
2022/03/23 08:31:09;;;;;;;6.10;4.10;;;;;;;15.54;29.38;100638.00;5175044;27;20189;-74
2022/03/23 08:33:36;;;;;;;5.43;3.40;;;;;;;15.57;29.07;100652.78;5174825;27;20618;-74
2022/03/23 08:36:05;;;;;;;9.53;7.27;;;;;;;15.93;29.14;100650.72;5174519;27;20188;-75
2022/03/23 08:38:33;;;;;;;14.50;7.50;;;;;;;16.05;28.93;100655.56;5174452;27;20236;-73
2022/03/23 08:41:01;;;;;;;6.93;3.77;;;;;;;15.61;29.09;100644.75;5174287;27;20243;-75
2022/03/23 08:43:28;;;;;;;7.90;7.10;;;;;;;15.38;29.17;100651.56;5174295;27;20280;-74
2022/03/23 08:45:55;;;;;;;5.03;4.40;;;;;;;14.71;29.51;100650.91;5175304;27;20563;-75
2022/03/23 08:48:22;;;;;;;4.07;3.67;;;;;;;14.41;29.99;100634.31;5174109;27;20288;-73
2022/03/23 08:50:51;;;;;;;7.37;5.10;;;;;;;14.58;30.02;100644.28;5174078;27;20643;-75
2022/03/23 08:53:19;;;;;;;5.73;3.80;;;;;;;14.20;30.09;100640.94;5174965;27;20639;-73
2022/03/23 08:55:47;;;;;;;5.67;5.10;;;;;;;13.96;30.08;100638.94;5174416;27;20195;-73
2022/03/23 08:58:14;;;;;;;9.90;5.23;;;;;;;14.31;30.53;100653.72;5167427;27;20200;-72
2022/03/23 09:00:41;;;;;;;6.57;4.90;;;;;;;14.39;30.23;100642.19;5152999;27;20606;-73
2022/03/23 09:03:08;;;;;;;7.23;4.00;;;;;;;14.44;30.25;100644.69;5154687;27;20307;-74
2022/03/23 09:05:35;;;;;;;4.13;3.77;;;;;;;14.28;30.55;100646.81;5161890;27;20280;-75
2022/03/23 09:08:02;;;;;;;7.80;3.60;;;;;;;14.44;30.31;100624.66;5162021;27;20216;-76
2022/03/23 09:10:29;;;;;;;5.60;3.50;;;;;;;14.25;30.54;100636.44;5160594;27;20209;-75
2022/03/23 09:12:58;;;;;;;4.80;3.10;;;;;;;14.13;30.29;100639.34;5167463;27;20216;-75
2022/03/23 09:15:25;;;;;;;3.93;3.33;;;;;;;14.27;30.10;100631.16;5159775;27;20602;-73
2022/03/23 09:17:52;;;;;;;3.73;3.33;;;;;;;14.40;29.98;100620.41;5170736;27;20223;-74
2022/03/23 09:20:18;;;;;;;4.20;3.80;;;;;;;14.46;30.06;100622.84;5165688;27;20230;-74
2022/03/23 09:22:46;;;;;;;4.70;3.27;;;;;;;13.94;30.47;100630.28;5162854;27;20609;-81
2022/03/23 09:25:15;;;;;;;4.83;3.50;;;;;;;13.76;31.09;100618.56;5167137;27;20268;-80
2022/03/23 09:27:43;;;;;;;3.47;3.17;;;;;;;13.94;30.92;100606.78;5174425;27;20243;-82
2022/03/23 09:30:13;;;;;;;4.33;3.33;;;;;;;14.02;30.91;100610.06;5173811;27;20228;-79
2022/03/23 09:32:41;;;;;;;10.03;3.13;;;;;;;14.34;30.51;100604.84;5164535;27;20224;-83
2022/03/23 09:35:08;;;;;;;12.03;3.97;;;;;;;14.45;30.30;100604.59;5165334;27;20664;-79
2022/03/23 09:37:52;;;;;;;11.00;4.13;;;;;;;14.57;30.69;100608.63;5175149;27;20672;-83
2022/03/23 09:40:24;;;;;;;4.53;3.50;;;;;;;14.75;29.76;100601.13;5173162;27;20231;-74
2022/03/23 09:42:51;;;;;;;6.53;4.17;;;;;;;14.60;30.19;100588.50;5172740;27;20248;-75
2022/03/23 09:45:46;;;;;;;4.27;3.30;;;;;;;14.56;29.77;100604.31;5171654;27;20208;-75
2022/03/23 09:48:16;;;;;;;4.77;3.37;;;;;;;14.47;30.06;100603.66;5172250;27;20620;-81
2022/03/23 09:50:46;;;;;;;7.63;3.90;;;;;;;14.51;29.82;100596.59;5167423;27;20602;-80
2022/03/23 09:53:14;;;;;;;10.90;3.47;;;;;;;14.58;29.68;100597.28;5152867;27;20686;-79
2022/03/23 09:55:43;;;;;;;3.50;3.20;;;;;;;14.46;29.68;100595.84;5152648;27;20189;-76
2022/03/23 09:58:10;;;;;;;10.00;3.80;;;;;;;14.32;29.59;100591.00;5153369;27;20193;-79
2022/03/23 10:00:40;;;;;;;4.20;3.40;;;;;;;14.09;29.43;100606.41;5153904;27;20213;-84
2022/03/23 10:03:58;;;;;;;3.67;3.37;;;;;;;13.87;29.75;100579.13;5153760;27;20189;-85
2022/03/23 10:06:52;;;;;;;6.60;3.67;;;;;;;14.07;29.28;100595.16;5154811;27;20200;-88
2022/03/23 10:09:48;;;;;;;4.63;2.77;;;;;;;14.11;29.43;100568.03;5154365;27;20197;-86
2022/03/23 10:12:58;;;;;;;2.83;2.60;;;;;;;14.15;29.10;100585.34;5154890;27;20193;-87
2022/03/23 10:16:17;;;;;;;3.83;3.17;;;;;;;14.14;29.18;100583.63;5152991;27;20688;-87
2022/03/23 10:18:52;;;;;;;2.90;2.70;;;;;;;14.26;29.02;100540.66;5153600;27;20265;-87
2022/03/23 10:21:20;;;;;;;7.43;4.13;;;;;;;14.78;28.89;100569.69;5154082;27;20217;-86
2022/03/23 10:24:31;;;;;;;5.73;3.47;;;;;;;14.76;29.11;100560.19;5154745;27;20703;-87
2022/03/23 10:26:59;;;;;;;7.03;4.00;;;;;;;15.04;28.65;100560.19;5154058;27;20564;-85
2022/03/23 10:29:27;;;;;;;6.20;4.40;;;;;;;15.01;28.91;100552.47;5164976;27;20192;-82
2022/03/23 10:32:03;;;;;;;6.87;3.43;;;;;;;14.85;28.84;100555.53;5174227;27;20192;-83
2022/03/23 10:34:41;;;;;;;6.67;3.77;;;;;;;14.80;28.97;100540.88;5174932;27;20196;-79
2022/03/23 10:37:08;;;;;;;7.60;4.20;;;;;;;14.58;29.10;100550.25;5173469;27;20188;-83
2022/03/23 10:39:35;;;;;;;4.93;3.33;;;;;;;14.49;28.45;100544.38;5174030;27;20271;-84
2022/03/23 10:42:09;;;;;;;5.43;2.63;;;;;;;14.61;27.75;100544.94;5174932;27;20329;-81
2022/03/23 10:44:36;;;;;;;3.10;2.40;;;;;;;14.61;27.80;100511.81;5174678;27;20257;-82
2022/03/23 10:47:06;;;;;;;7.63;4.03;;;;;;;14.96;27.77;100534.28;5156695;27;20239;-81
2022/03/23 10:49:35;;;;;;;4.63;3.10;;;;;;;14.98;27.79;100529.88;5154558;27;20221;-81
2022/03/23 10:52:14;;;;;;;4.20;3.17;;;;;;;15.09;27.99;100509.47;5134135;27;20194;-81
2022/03/23 10:54:42;;;;;;;7.10;3.50;;;;;;;15.21;28.16;100518.69;5158395;27;20193;-85
2022/03/23 10:57:10;;;;;;;3.07;2.87;;;;;;;15.04;27.79;100518.34;5154963;27;20189;-86
2022/03/23 10:59:46;;;;;;;3.17;2.93;;;;;;;14.71;28.10;100473.19;5153687;27;20200;-82
2022/03/23 11:02:16;;;;;;;6.73;3.07;;;;;;;14.67;28.13;100489.91;5162715;27;20216;-86
2022/03/23 11:04:49;;;;;;;4.33;3.00;;;;;;;14.72;27.72;100504.53;5173693;27;20579;-86
2022/03/23 11:07:27;;;;;;;8.67;3.07;;;;;;;14.82;27.76;100510.31;5164676;27;20591;-83
2022/03/23 11:18:12;;;;;;;3.60;3.30;;;;;;;14.37;28.25;100487.22;5170298;27;20610;-79
2022/03/23 11:20:46;;;;;;;6.67;4.17;;;;;;;14.32;28.06;100491.75;5160555;27;20241;-79
2022/03/23 11:23:22;;;;;;;5.97;3.43;;;;;;;14.37;28.16;100491.59;5173321;27;20291;-77
2022/03/23 11:25:51;;;;;;;3.63;3.10;;;;;;;14.36;28.02;100456.78;5172468;27;20196;-78
2022/03/23 11:28:19;;;;;;;8.13;6.13;;;;;;;14.34;27.97;100445.53;5176570;27;20192;-77
2022/03/23 11:30:47;;;;;;;20.17;9.53;;;;;;;14.48;28.18;100474.75;5176890;27;20280;-79
2022/03/23 11:33:19;;;;;;;3.70;3.10;;;;;;;14.43;27.63;100466.22;5177539;27;20188;-79
2022/03/23 11:35:49;;;;;;;8.73;3.13;;;;;;;14.50;27.19;100451.19;5176641;27;20632;-77
2022/03/23 11:38:18;;;;;;;4.53;2.93;;;;;;;14.60;27.74;100460.47;5172876;27;20248;-77
2022/03/23 11:40:45;;;;;;;18.73;3.93;;;;;;;14.64;28.08;100454.25;5177795;27;20767;-79
2022/03/23 11:43:16;;;;;;;5.97;4.30;;;;;;;14.69;28.08;100454.09;5176831;27;20215;-77
2022/03/23 11:45:46;;;;;;;7.43;3.90;;;;;;;14.60;27.45;100425.63;5177428;27;20248;-80
2022/03/23 11:48:30;;;;;;;5.20;3.80;;;;;;;14.79;27.53;100447.69;5177994;27;20231;-83